Paoli, Colorado
Current Conditions -  °F | °C
As of 8:15 PM on Friday 19 Dec 2014 (Local Time) from K2V5 Reporting Station
Clear Clear  
Wind Chill: 20°   Ceiling: Unl
Heat Index: 29°   Visibility: 10mi
Dew Point: 24°   Wind: 9mph
Humidity: 83%   Direction: 240°WSW
Pressure: 30.04"   Gusts: NA
Location:  40.61°N, 102.47°W
Report Text: K2V5 200315Z AUTO 24008KT 10SM CLR M02/M04 A3004 RMK AO2 T10191044
Loading
Personal Weather Stations






























Interactive Weather Map New forecast layout! Learn more

10-Day Weather Forecast

Advertisements
Track Severe Weather on mobile